sensor_id;sensor_type;location;lat;lon;timestamp;temperature;humidity
24152;DHT22;12311;50.866;4.332;2024-03-08T00:01:10;5.60;99.90
24152;DHT22;12311;50.866;4.332;2024-03-08T00:03:35;5.50;99.90
24152;DHT22;12311;50.866;4.332;2024-03-08T00:06:01;5.40;99.90
24152;DHT22;12311;50.866;4.332;2024-03-08T00:08:28;5.40;99.90
24152;DHT22;12311;50.866;4.332;2024-03-08T00:10:53;5.50;99.90
24152;DHT22;12311;50.866;4.332;2024-03-08T00:13:19;5.40;99.90
24152;DHT22;12311;50.866;4.332;2024-03-08T00:15:45;5.40;99.90
24152;DHT22;12311;50.866;4.332;2024-03-08T00:18:11;5.30;99.90
24152;DHT22;12311;50.866;4.332;2024-03-08T00:20:37;5.20;99.90
24152;DHT22;12311;50.866;4.332;2024-03-08T00:23:03;5.20;99.90
24152;DHT22;12311;50.866;4.332;2024-03-08T00:25:29;5.30;99.90
24152;DHT22;12311;50.866;4.332;2024-03-08T00:27:55;5.30;99.90
24152;DHT22;12311;50.866;4.332;2024-03-08T00:30:25;5.30;99.90
24152;DHT22;12311;50.866;4.332;2024-03-08T00:32:51;5.30;99.90
24152;DHT22;12311;50.866;4.332;2024-03-08T00:35:17;5.20;99.90
24152;DHT22;12311;50.866;4.332;2024-03-08T00:37:43;5.20;99.90
24152;DHT22;12311;50.866;4.332;2024-03-08T00:40:12;5.20;99.90
24152;DHT22;12311;50.866;4.332;2024-03-08T00:42:38;5.30;99.90
24152;DHT22;12311;50.866;4.332;2024-03-08T00:45:05;5.20;99.90
24152;DHT22;12311;50.866;4.332;2024-03-08T00:47:31;5.20;99.90
24152;DHT22;12311;50.866;4.332;2024-03-08T00:49:57;5.00;99.90
24152;DHT22;12311;50.866;4.332;2024-03-08T00:52:23;4.90;99.90
24152;DHT22;12311;50.866;4.332;2024-03-08T00:54:50;4.90;99.90
24152;DHT22;12311;50.866;4.332;2024-03-08T00:57:15;4.90;99.90
24152;DHT22;12311;50.866;4.332;2024-03-08T00:59:41;4.90;99.90
24152;DHT22;12311;50.866;4.332;2024-03-08T01:02:07;5.00;99.90
24152;DHT22;12311;50.866;4.332;2024-03-08T01:04:34;4.90;99.90
24152;DHT22;12311;50.866;4.332;2024-03-08T01:07:00;4.90;99.90
24152;DHT22;12311;50.866;4.332;2024-03-08T01:09:27;4.90;99.90
24152;DHT22;12311;50.866;4.332;2024-03-08T01:11:54;4.90;99.90
24152;DHT22;12311;50.866;4.332;2024-03-08T01:14:21;4.90;99.90
24152;DHT22;12311;50.866;4.332;2024-03-08T01:16:48;4.80;99.90
24152;DHT22;12311;50.866;4.332;2024-03-08T01:19:14;4.80;99.90
24152;DHT22;12311;50.866;4.332;2024-03-08T01:21:41;4.80;99.90
24152;DHT22;12311;50.866;4.332;2024-03-08T01:24:07;4.80;99.90
24152;DHT22;12311;50.866;4.332;2024-03-08T01:26:33;4.80;99.90
24152;DHT22;12311;50.866;4.332;2024-03-08T01:29:02;4.70;99.90
24152;DHT22;12311;50.866;4.332;2024-03-08T01:31:29;4.80;99.90
24152;DHT22;12311;50.866;4.332;2024-03-08T01:33:56;4.70;99.90
24152;DHT22;12311;50.866;4.332;2024-03-08T01:36:21;4.70;99.90
24152;DHT22;12311;50.866;4.332;2024-03-08T01:38:47;4.70;99.90
24152;DHT22;12311;50.866;4.332;2024-03-08T01:41:13;4.70;99.90
24152;DHT22;12311;50.866;4.332;2024-03-08T01:43:39;4.70;99.90
24152;DHT22;12311;50.866;4.332;2024-03-08T01:46:05;4.60;99.90
24152;DHT22;12311;50.866;4.332;2024-03-08T01:48:32;4.70;99.90
24152;DHT22;12311;50.866;4.332;2024-03-08T01:50:57;4.70;99.90
24152;DHT22;12311;50.866;4.332;2024-03-08T01:53:27;4.80;99.90
24152;DHT22;12311;50.866;4.332;2024-03-08T01:55:57;4.80;99.90
24152;DHT22;12311;50.866;4.332;2024-03-08T01:58:24;4.80;99.90
24152;DHT22;12311;50.866;4.332;2024-03-08T02:00:50;4.70;99.90
24152;DHT22;12311;50.866;4.332;2024-03-08T02:03:16;4.60;99.90
24152;DHT22;12311;50.866;4.332;2024-03-08T02:05:42;4.70;99.90
24152;DHT22;12311;50.866;4.332;2024-03-08T02:08:11;4.70;99.90
24152;DHT22;12311;50.866;4.332;2024-03-08T02:10:49;4.60;99.90
24152;DHT22;12311;50.866;4.332;2024-03-08T02:13:15;4.60;99.90
24152;DHT22;12311;50.866;4.332;2024-03-08T02:16:00;4.70;99.90
24152;DHT22;12311;50.866;4.332;2024-03-08T02:18:27;4.60;99.90
24152;DHT22;12311;50.866;4.332;2024-03-08T02:20:56;4.60;99.90
24152;DHT22;12311;50.866;4.332;2024-03-08T02:23:22;4.60;99.90
24152;DHT22;12311;50.866;4.332;2024-03-08T02:25:51;4.60;99.90
24152;DHT22;12311;50.866;4.332;2024-03-08T02:28:17;4.60;99.90
24152;DHT22;12311;50.866;4.332;2024-03-08T02:30:52;4.50;99.90
24152;DHT22;12311;50.866;4.332;2024-03-08T02:33:21;4.60;99.90
24152;DHT22;12311;50.866;4.332;2024-03-08T02:35:48;4.50;99.90
24152;DHT22;12311;50.866;4.332;2024-03-08T02:38:19;4.50;99.90
24152;DHT22;12311;50.866;4.332;2024-03-08T02:40:45;4.40;99.90
24152;DHT22;12311;50.866;4.332;2024-03-08T02:43:12;4.50;99.90
24152;DHT22;12311;50.866;4.332;2024-03-08T02:45:38;4.50;99.90
24152;DHT22;12311;50.866;4.332;2024-03-08T02:48:05;4.40;99.90
24152;DHT22;12311;50.866;4.332;2024-03-08T02:50:34;4.50;99.90
24152;DHT22;12311;50.866;4.332;2024-03-08T02:53:04;4.50;99.90
24152;DHT22;12311;50.866;4.332;2024-03-08T02:55:31;4.40;99.90
24152;DHT22;12311;50.866;4.332;2024-03-08T02:57:57;4.40;99.90
24152;DHT22;12311;50.866;4.332;2024-03-08T03:00:23;4.30;99.90
24152;DHT22;12311;50.866;4.332;2024-03-08T03:02:50;4.30;99.90
24152;DHT22;12311;50.866;4.332;2024-03-08T03:05:23;4.20;99.90
24152;DHT22;12311;50.866;4.332;2024-03-08T03:07:49;4.20;99.90
24152;DHT22;12311;50.866;4.332;2024-03-08T03:10:17;4.20;99.90
24152;DHT22;12311;50.866;4.332;2024-03-08T03:12:43;4.10;99.90
24152;DHT22;12311;50.866;4.332;2024-03-08T03:15:11;4.10;99.90
24152;DHT22;12311;50.866;4.332;2024-03-08T03:17:37;4.20;99.90
24152;DHT22;12311;50.866;4.332;2024-03-08T03:20:05;4.30;99.90
24152;DHT22;12311;50.866;4.332;2024-03-08T03:22:36;4.20;99.90
24152;DHT22;12311;50.866;4.332;2024-03-08T03:25:03;4.20;99.90
24152;DHT22;12311;50.866;4.332;2024-03-08T03:27:32;4.10;99.90
24152;DHT22;12311;50.866;4.332;2024-03-08T03:29:58;4.10;99.90
24152;DHT22;12311;50.866;4.332;2024-03-08T03:32:24;4.10;99.90
24152;DHT22;12311;50.866;4.332;2024-03-08T03:34:50;4.10;99.90
24152;DHT22;12311;50.866;4.332;2024-03-08T03:37:21;4.10;99.90
24152;DHT22;12311;50.866;4.332;2024-03-08T03:39:47;4.00;99.90
24152;DHT22;12311;50.866;4.332;2024-03-08T03:42:19;4.00;99.90
24152;DHT22;12311;50.866;4.332;2024-03-08T03:44:48;3.90;99.90
24152;DHT22;12311;50.866;4.332;2024-03-08T03:47:17;4.00;99.90
24152;DHT22;12311;50.866;4.332;2024-03-08T03:49:43;4.00;99.90
24152;DHT22;12311;50.866;4.332;2024-03-08T03:52:09;4.00;99.90
24152;DHT22;12311;50.866;4.332;2024-03-08T03:54:35;4.00;99.90
24152;DHT22;12311;50.866;4.332;2024-03-08T03:57:01;3.90;99.90
24152;DHT22;12311;50.866;4.332;2024-03-08T03:59:28;3.90;99.90
24152;DHT22;12311;50.866;4.332;2024-03-08T04:01:54;4.00;99.90
24152;DHT22;12311;50.866;4.332;2024-03-08T04:04:21;4.00;99.90
24152;DHT22;12311;50.866;4.332;2024-03-08T04:06:46;3.90;99.90
24152;DHT22;12311;50.866;4.332;2024-03-08T04:09:13;3.80;99.90
24152;DHT22;12311;50.866;4.332;2024-03-08T04:11:39;3.90;99.90
24152;DHT22;12311;50.866;4.332;2024-03-08T04:14:05;3.80;99.90
24152;DHT22;12311;50.866;4.332;2024-03-08T04:16:31;3.90;99.90
24152;DHT22;12311;50.866;4.332;2024-03-08T04:18:58;3.80;99.90
24152;DHT22;12311;50.866;4.332;2024-03-08T04:21:23;3.80;99.90
24152;DHT22;12311;50.866;4.332;2024-03-08T04:23:49;3.80;99.90
24152;DHT22;12311;50.866;4.332;2024-03-08T04:26:15;3.80;99.90
24152;DHT22;12311;50.866;4.332;2024-03-08T04:28:41;3.80;99.90
24152;DHT22;12311;50.866;4.332;2024-03-08T04:31:07;3.70;99.90
24152;DHT22;12311;50.866;4.332;2024-03-08T04:33:33;3.80;99.90
24152;DHT22;12311;50.866;4.332;2024-03-08T04:36:01;3.80;99.90
24152;DHT22;12311;50.866;4.332;2024-03-08T04:38:29;3.80;99.90
24152;DHT22;12311;50.866;4.332;2024-03-08T04:40:56;3.70;99.90
24152;DHT22;12311;50.866;4.332;2024-03-08T04:43:22;3.80;99.90
24152;DHT22;12311;50.866;4.332;2024-03-08T04:45:51;3.80;99.90
24152;DHT22;12311;50.866;4.332;2024-03-08T04:48:17;3.90;99.90
24152;DHT22;12311;50.866;4.332;2024-03-08T04:50:42;3.70;99.90
24152;DHT22;12311;50.866;4.332;2024-03-08T04:53:09;3.70;99.90
24152;DHT22;12311;50.866;4.332;2024-03-08T04:55:35;3.60;99.90
24152;DHT22;12311;50.866;4.332;2024-03-08T04:58:00;3.50;99.90
24152;DHT22;12311;50.866;4.332;2024-03-08T05:00:26;3.60;99.90
24152;DHT22;12311;50.866;4.332;2024-03-08T05:02:52;3.70;99.90
24152;DHT22;12311;50.866;4.332;2024-03-08T05:05:19;3.70;99.90
24152;DHT22;12311;50.866;4.332;2024-03-08T05:07:44;3.70;99.90
24152;DHT22;12311;50.866;4.332;2024-03-08T05:10:11;3.70;99.90
24152;DHT22;12311;50.866;4.332;2024-03-08T05:12:37;3.60;99.90
24152;DHT22;12311;50.866;4.332;2024-03-08T05:15:05;3.60;99.90
24152;DHT22;12311;50.866;4.332;2024-03-08T05:17:32;3.70;99.90
24152;DHT22;12311;50.866;4.332;2024-03-08T05:19:58;3.60;99.90
24152;DHT22;12311;50.866;4.332;2024-03-08T05:22:24;3.60;99.90
24152;DHT22;12311;50.866;4.332;2024-03-08T05:24:49;3.50;99.90
24152;DHT22;12311;50.866;4.332;2024-03-08T05:27:15;3.50;99.90
24152;DHT22;12311;50.866;4.332;2024-03-08T05:29:41;3.40;99.90
24152;DHT22;12311;50.866;4.332;2024-03-08T05:32:07;3.50;99.90
24152;DHT22;12311;50.866;4.332;2024-03-08T05:34:33;3.50;99.90
24152;DHT22;12311;50.866;4.332;2024-03-08T05:36:58;3.60;99.90
24152;DHT22;12311;50.866;4.332;2024-03-08T05:39:25;3.50;99.90
24152;DHT22;12311;50.866;4.332;2024-03-08T05:41:51;3.60;99.90
24152;DHT22;12311;50.866;4.332;2024-03-08T05:44:17;3.50;99.90
24152;DHT22;12311;50.866;4.332;2024-03-08T05:46:42;3.50;99.90
24152;DHT22;12311;50.866;4.332;2024-03-08T05:49:08;3.40;99.90
24152;DHT22;12311;50.866;4.332;2024-03-08T05:51:36;3.40;99.90
24152;DHT22;12311;50.866;4.332;2024-03-08T05:54:09;3.50;99.90
24152;DHT22;12311;50.866;4.332;2024-03-08T05:56:36;3.50;99.90
24152;DHT22;12311;50.866;4.332;2024-03-08T05:59:02;3.40;99.90
24152;DHT22;12311;50.866;4.332;2024-03-08T06:01:28;3.40;99.90
24152;DHT22;12311;50.866;4.332;2024-03-08T06:03:55;3.40;99.90
24152;DHT22;12311;50.866;4.332;2024-03-08T06:06:24;3.40;99.90
24152;DHT22;12311;50.866;4.332;2024-03-08T06:08:50;3.50;99.90
24152;DHT22;12311;50.866;4.332;2024-03-08T06:11:17;3.40;99.90
24152;DHT22;12311;50.866;4.332;2024-03-08T06:13:44;3.50;99.90
24152;DHT22;12311;50.866;4.332;2024-03-08T06:16:10;3.40;99.90
24152;DHT22;12311;50.866;4.332;2024-03-08T06:18:36;3.40;99.90
24152;DHT22;12311;50.866;4.332;2024-03-08T06:21:08;3.50;99.90
24152;DHT22;12311;50.866;4.332;2024-03-08T06:23:37;3.50;99.90
24152;DHT22;12311;50.866;4.332;2024-03-08T06:26:12;3.50;99.90
24152;DHT22;12311;50.866;4.332;2024-03-08T06:28:38;3.50;99.90
24152;DHT22;12311;50.866;4.332;2024-03-08T06:31:04;3.60;99.90
24152;DHT22;12311;50.866;4.332;2024-03-08T06:33:30;3.50;99.90
24152;DHT22;12311;50.866;4.332;2024-03-08T06:35:58;3.60;99.90
24152;DHT22;12311;50.866;4.332;2024-03-08T06:38:24;3.70;99.90
24152;DHT22;12311;50.866;4.332;2024-03-08T06:40:50;3.60;99.90
24152;DHT22;12311;50.866;4.332;2024-03-08T06:43:17;3.60;99.90
24152;DHT22;12311;50.866;4.332;2024-03-08T06:45:47;3.60;99.90
24152;DHT22;12311;50.866;4.332;2024-03-08T06:48:19;3.60;99.90
24152;DHT22;12311;50.866;4.332;2024-03-08T06:50:45;3.60;99.90
24152;DHT22;12311;50.866;4.332;2024-03-08T06:53:11;3.70;99.90
24152;DHT22;12311;50.866;4.332;2024-03-08T06:55:37;3.80;99.90
24152;DHT22;12311;50.866;4.332;2024-03-08T06:58:03;3.70;99.90
24152;DHT22;12311;50.866;4.332;2024-03-08T07:00:29;3.80;99.90
24152;DHT22;12311;50.866;4.332;2024-03-08T07:02:56;3.80;99.90
24152;DHT22;12311;50.866;4.332;2024-03-08T07:05:26;3.80;99.90
24152;DHT22;12311;50.866;4.332;2024-03-08T07:07:52;3.80;99.90
24152;DHT22;12311;50.866;4.332;2024-03-08T07:10:20;3.70;99.90
24152;DHT22;12311;50.866;4.332;2024-03-08T07:12:46;3.80;99.90
24152;DHT22;12311;50.866;4.332;2024-03-08T07:15:12;3.80;99.90
24152;DHT22;12311;50.866;4.332;2024-03-08T07:17:41;3.90;99.90
24152;DHT22;12311;50.866;4.332;2024-03-08T07:20:10;4.00;99.90
24152;DHT22;12311;50.866;4.332;2024-03-08T07:22:38;4.00;99.90
24152;DHT22;12311;50.866;4.332;2024-03-08T07:25:07;4.00;99.90
24152;DHT22;12311;50.866;4.332;2024-03-08T07:27:33;4.00;99.90
24152;DHT22;12311;50.866;4.332;2024-03-08T07:30:04;4.00;99.90
24152;DHT22;12311;50.866;4.332;2024-03-08T07:32:30;4.10;99.90
24152;DHT22;12311;50.866;4.332;2024-03-08T07:34:57;4.20;99.90
24152;DHT22;12311;50.866;4.332;2024-03-08T07:37:22;4.20;99.90
24152;DHT22;12311;50.866;4.332;2024-03-08T07:39:49;4.30;99.90
24152;DHT22;12311;50.866;4.332;2024-03-08T07:42:15;4.30;99.90
24152;DHT22;12311;50.866;4.332;2024-03-08T07:44:42;4.40;99.90
24152;DHT22;12311;50.866;4.332;2024-03-08T07:47:08;4.40;99.90
24152;DHT22;12311;50.866;4.332;2024-03-08T07:49:35;4.50;99.90
24152;DHT22;12311;50.866;4.332;2024-03-08T07:52:05;4.50;99.90
24152;DHT22;12311;50.866;4.332;2024-03-08T07:54:33;4.60;99.90
24152;DHT22;12311;50.866;4.332;2024-03-08T07:57:00;4.70;99.90
24152;DHT22;12311;50.866;4.332;2024-03-08T07:59:28;4.70;99.90
24152;DHT22;12311;50.866;4.332;2024-03-08T08:01:55;4.70;99.90
24152;DHT22;12311;50.866;4.332;2024-03-08T08:04:21;4.70;99.90
24152;DHT22;12311;50.866;4.332;2024-03-08T08:06:50;4.70;99.90
24152;DHT22;12311;50.866;4.332;2024-03-08T08:09:16;4.80;99.90
24152;DHT22;12311;50.866;4.332;2024-03-08T08:11:56;4.90;99.90
24152;DHT22;12311;50.866;4.332;2024-03-08T08:14:22;5.00;99.90
24152;DHT22;12311;50.866;4.332;2024-03-08T08:16:48;5.10;99.90
24152;DHT22;12311;50.866;4.332;2024-03-08T08:19:15;5.10;99.90
24152;DHT22;12311;50.866;4.332;2024-03-08T08:21:41;5.20;99.90
24152;DHT22;12311;50.866;4.332;2024-03-08T08:24:07;5.20;99.90
24152;DHT22;12311;50.866;4.332;2024-03-08T08:26:33;5.20;99.90
24152;DHT22;12311;50.866;4.332;2024-03-08T08:28:59;5.20;99.90
24152;DHT22;12311;50.866;4.332;2024-03-08T08:31:25;5.40;99.90
24152;DHT22;12311;50.866;4.332;2024-03-08T08:33:51;5.50;99.90
24152;DHT22;12311;50.866;4.332;2024-03-08T08:36:26;5.50;99.90
24152;DHT22;12311;50.866;4.332;2024-03-08T08:38:55;5.60;99.90
24152;DHT22;12311;50.866;4.332;2024-03-08T08:41:22;5.70;99.90
24152;DHT22;12311;50.866;4.332;2024-03-08T08:43:52;5.80;99.90
24152;DHT22;12311;50.866;4.332;2024-03-08T08:46:18;5.90;99.90
24152;DHT22;12311;50.866;4.332;2024-03-08T08:48:44;6.00;99.90
24152;DHT22;12311;50.866;4.332;2024-03-08T08:51:14;6.10;99.90
24152;DHT22;12311;50.866;4.332;2024-03-08T08:53:41;6.10;99.90
24152;DHT22;12311;50.866;4.332;2024-03-08T08:56:15;6.10;99.90
24152;DHT22;12311;50.866;4.332;2024-03-08T08:58:44;6.20;99.90
24152;DHT22;12311;50.866;4.332;2024-03-08T09:01:10;6.20;99.90
24152;DHT22;12311;50.866;4.332;2024-03-08T09:03:37;6.30;99.90
24152;DHT22;12311;50.866;4.332;2024-03-08T09:06:09;6.30;99.90
24152;DHT22;12311;50.866;4.332;2024-03-08T09:08:38;6.30;99.90
24152;DHT22;12311;50.866;4.332;2024-03-08T09:11:04;6.30;99.90
24152;DHT22;12311;50.866;4.332;2024-03-08T09:13:31;6.60;99.90
24152;DHT22;12311;50.866;4.332;2024-03-08T09:15:56;6.80;99.90
24152;DHT22;12311;50.866;4.332;2024-03-08T09:18:22;6.80;99.90
24152;DHT22;12311;50.866;4.332;2024-03-08T09:20:49;6.90;99.90
24152;DHT22;12311;50.866;4.332;2024-03-08T09:23:19;7.00;99.90
24152;DHT22;12311;50.866;4.332;2024-03-08T09:25:45;7.00;99.90
24152;DHT22;12311;50.866;4.332;2024-03-08T09:28:12;7.10;99.90
24152;DHT22;12311;50.866;4.332;2024-03-08T09:30:40;7.40;99.90
24152;DHT22;12311;50.866;4.332;2024-03-08T09:33:06;7.30;99.90
24152;DHT22;12311;50.866;4.332;2024-03-08T09:35:33;7.40;99.90
24152;DHT22;12311;50.866;4.332;2024-03-08T09:37:58;7.50;99.90
24152;DHT22;12311;50.866;4.332;2024-03-08T09:40:24;7.70;99.90
24152;DHT22;12311;50.866;4.332;2024-03-08T09:42:51;7.80;99.90
24152;DHT22;12311;50.866;4.332;2024-03-08T09:45:19;8.00;99.90
24152;DHT22;12311;50.866;4.332;2024-03-08T09:47:47;8.00;99.90
24152;DHT22;12311;50.866;4.332;2024-03-08T09:50:16;8.10;99.90
24152;DHT22;12311;50.866;4.332;2024-03-08T09:52:47;8.10;99.90
24152;DHT22;12311;50.866;4.332;2024-03-08T09:55:13;8.30;99.90
24152;DHT22;12311;50.866;4.332;2024-03-08T09:57:40;8.50;99.90
24152;DHT22;12311;50.866;4.332;2024-03-08T10:00:06;8.70;99.90
24152;DHT22;12311;50.866;4.332;2024-03-08T10:02:47;9.00;99.90
24152;DHT22;12311;50.866;4.332;2024-03-08T10:05:14;9.20;99.90
24152;DHT22;12311;50.866;4.332;2024-03-08T10:07:40;9.40;99.90
24152;DHT22;12311;50.866;4.332;2024-03-08T10:10:06;9.60;99.90
24152;DHT22;12311;50.866;4.332;2024-03-08T10:12:34;9.70;19.40
24152;DHT22;12311;50.866;4.332;2024-03-08T10:15:00;9.80;19.30
24152;DHT22;12311;50.866;4.332;2024-03-08T10:17:26;10.10;17.40
24152;DHT22;12311;50.866;4.332;2024-03-08T10:19:57;10.20;11.90
24152;DHT22;12311;50.866;4.332;2024-03-08T10:22:25;10.10;10.50
24152;DHT22;12311;50.866;4.332;2024-03-08T10:24:51;10.20;10.70
24152;DHT22;12311;50.866;4.332;2024-03-08T10:27:18;10.40;11.20
24152;DHT22;12311;50.866;4.332;2024-03-08T10:29:47;10.60;6.90
24152;DHT22;12311;50.866;4.332;2024-03-08T10:32:13;10.70;3.20
24152;DHT22;12311;50.866;4.332;2024-03-08T10:34:41;10.80;3.50
24152;DHT22;12311;50.866;4.332;2024-03-08T10:37:07;11.00;3.40
24152;DHT22;12311;50.866;4.332;2024-03-08T10:39:41;11.10;1.00
24152;DHT22;12311;50.866;4.332;2024-03-08T10:42:18;11.20;1.00
24152;DHT22;12311;50.866;4.332;2024-03-08T10:44:57;11.50;1.00
24152;DHT22;12311;50.866;4.332;2024-03-08T10:47:30;11.60;1.00
24152;DHT22;12311;50.866;4.332;2024-03-08T10:50:10;11.40;1.00
24152;DHT22;12311;50.866;4.332;2024-03-08T10:52:38;11.50;1.00
24152;DHT22;12311;50.866;4.332;2024-03-08T10:55:05;11.60;1.00
24152;DHT22;12311;50.866;4.332;2024-03-08T10:57:38;11.70;1.00
24152;DHT22;12311;50.866;4.332;2024-03-08T11:00:07;11.70;1.00
24152;DHT22;12311;50.866;4.332;2024-03-08T11:02:36;11.60;1.00
24152;DHT22;12311;50.866;4.332;2024-03-08T11:05:03;11.70;1.00
24152;DHT22;12311;50.866;4.332;2024-03-08T11:07:34;11.80;1.00
24152;DHT22;12311;50.866;4.332;2024-03-08T11:10:03;12.20;1.00
24152;DHT22;12311;50.866;4.332;2024-03-08T11:12:39;12.40;1.00
24152;DHT22;12311;50.866;4.332;2024-03-08T11:15:12;12.30;1.00
24152;DHT22;12311;50.866;4.332;2024-03-08T11:20:18;12.70;1.00
24152;DHT22;12311;50.866;4.332;2024-03-08T11:23:04;12.60;1.00
24152;DHT22;12311;50.866;4.332;2024-03-08T11:25:31;12.90;1.00
24152;DHT22;12311;50.866;4.332;2024-03-08T11:28:22;13.00;1.00
24152;DHT22;12311;50.866;4.332;2024-03-08T11:33:31;13.10;1.00
24152;DHT22;12311;50.866;4.332;2024-03-08T11:36:12;13.40;1.00
24152;DHT22;12311;50.866;4.332;2024-03-08T11:38:46;13.80;1.00
24152;DHT22;12311;50.866;4.332;2024-03-08T11:41:21;13.80;1.00
24152;DHT22;12311;50.866;4.332;2024-03-08T11:43:47;13.90;1.00
24152;DHT22;12311;50.866;4.332;2024-03-08T11:46:16;14.00;1.00
24152;DHT22;12311;50.866;4.332;2024-03-08T11:48:43;14.20;1.00
24152;DHT22;12311;50.866;4.332;2024-03-08T11:51:11;14.10;1.00
24152;DHT22;12311;50.866;4.332;2024-03-08T11:53:37;14.10;1.00
24152;DHT22;12311;50.866;4.332;2024-03-08T11:56:11;14.20;1.00
24152;DHT22;12311;50.866;4.332;2024-03-08T11:58:38;14.40;1.00
24152;DHT22;12311;50.866;4.332;2024-03-08T12:01:08;14.40;1.00
24152;DHT22;12311;50.866;4.332;2024-03-08T12:03:43;14.30;1.00
24152;DHT22;12311;50.866;4.332;2024-03-08T12:06:12;14.40;1.00
24152;DHT22;12311;50.866;4.332;2024-03-08T12:08:41;14.40;1.00
24152;DHT22;12311;50.866;4.332;2024-03-08T12:11:07;14.30;1.00
24152;DHT22;12311;50.866;4.332;2024-03-08T12:13:34;14.10;1.00
24152;DHT22;12311;50.866;4.332;2024-03-08T12:16:03;14.20;1.00
24152;DHT22;12311;50.866;4.332;2024-03-08T12:18:33;14.30;1.00
24152;DHT22;12311;50.866;4.332;2024-03-08T12:21:10;14.40;1.00
24152;DHT22;12311;50.866;4.332;2024-03-08T12:23:37;14.60;1.00
24152;DHT22;12311;50.866;4.332;2024-03-08T12:26:23;14.70;1.00
24152;DHT22;12311;50.866;4.332;2024-03-08T12:28:49;15.10;1.00
24152;DHT22;12311;50.866;4.332;2024-03-08T12:31:18;15.40;1.00
24152;DHT22;12311;50.866;4.332;2024-03-08T12:33:55;15.50;1.00
24152;DHT22;12311;50.866;4.332;2024-03-08T12:36:25;15.40;1.00
24152;DHT22;12311;50.866;4.332;2024-03-08T12:38:51;15.50;1.00
24152;DHT22;12311;50.866;4.332;2024-03-08T12:41:18;15.70;1.00
24152;DHT22;12311;50.866;4.332;2024-03-08T12:43:45;15.80;1.00
24152;DHT22;12311;50.866;4.332;2024-03-08T12:46:15;15.90;1.00
24152;DHT22;12311;50.866;4.332;2024-03-08T12:48:41;16.00;1.00
24152;DHT22;12311;50.866;4.332;2024-03-08T12:51:07;16.00;1.00
24152;DHT22;12311;50.866;4.332;2024-03-08T12:53:34;16.00;1.00
24152;DHT22;12311;50.866;4.332;2024-03-08T12:56:00;15.80;1.00
24152;DHT22;12311;50.866;4.332;2024-03-08T12:58:26;15.40;1.00
24152;DHT22;12311;50.866;4.332;2024-03-08T13:00:52;15.30;1.00
24152;DHT22;12311;50.866;4.332;2024-03-08T13:03:18;15.30;1.00
24152;DHT22;12311;50.866;4.332;2024-03-08T13:05:43;15.50;1.00
24152;DHT22;12311;50.866;4.332;2024-03-08T13:08:09;15.60;1.00
24152;DHT22;12311;50.866;4.332;2024-03-08T13:10:39;15.70;1.00
24152;DHT22;12311;50.866;4.332;2024-03-08T13:13:05;15.80;1.00
24152;DHT22;12311;50.866;4.332;2024-03-08T13:15:30;15.70;1.00
24152;DHT22;12311;50.866;4.332;2024-03-08T13:17:56;16.00;1.00
24152;DHT22;12311;50.866;4.332;2024-03-08T13:20:25;16.20;1.00
24152;DHT22;12311;50.866;4.332;2024-03-08T13:22:53;16.30;1.00
24152;DHT22;12311;50.866;4.332;2024-03-08T13:25:19;16.60;1.00
24152;DHT22;12311;50.866;4.332;2024-03-08T13:27:45;16.80;99.90
24152;DHT22;12311;50.866;4.332;2024-03-08T13:30:13;16.80;99.90
24152;DHT22;12311;50.866;4.332;2024-03-08T13:32:43;16.80;99.90
24152;DHT22;12311;50.866;4.332;2024-03-08T13:35:09;16.60;99.90
24152;DHT22;12311;50.866;4.332;2024-03-08T13:37:41;16.50;99.90
24152;DHT22;12311;50.866;4.332;2024-03-08T13:40:08;16.60;99.90
24152;DHT22;12311;50.866;4.332;2024-03-08T13:42:48;16.60;99.90
24152;DHT22;12311;50.866;4.332;2024-03-08T13:45:15;16.80;99.90
24152;DHT22;12311;50.866;4.332;2024-03-08T13:47:43;17.00;99.90
24152;DHT22;12311;50.866;4.332;2024-03-08T13:50:11;17.00;99.90
24152;DHT22;12311;50.866;4.332;2024-03-08T13:52:49;16.80;99.90
24152;DHT22;12311;50.866;4.332;2024-03-08T13:55:17;16.60;99.90
24152;DHT22;12311;50.866;4.332;2024-03-08T13:57:43;16.40;99.90
24152;DHT22;12311;50.866;4.332;2024-03-08T14:00:11;16.50;99.90
24152;DHT22;12311;50.866;4.332;2024-03-08T14:02:38;16.30;99.90
24152;DHT22;12311;50.866;4.332;2024-03-08T14:05:09;16.10;99.90
24152;DHT22;12311;50.866;4.332;2024-03-08T14:07:36;16.30;99.90
24152;DHT22;12311;50.866;4.332;2024-03-08T14:10:02;16.50;99.90
24152;DHT22;12311;50.866;4.332;2024-03-08T14:12:28;16.50;99.90
24152;DHT22;12311;50.866;4.332;2024-03-08T14:14:55;16.60;99.90
24152;DHT22;12311;50.866;4.332;2024-03-08T14:17:25;16.60;99.90
24152;DHT22;12311;50.866;4.332;2024-03-08T14:19:53;16.50;99.90
24152;DHT22;12311;50.866;4.332;2024-03-08T14:22:27;16.80;99.90
24152;DHT22;12311;50.866;4.332;2024-03-08T14:24:52;16.80;99.90
24152;DHT22;12311;50.866;4.332;2024-03-08T14:27:21;16.80;99.90
24152;DHT22;12311;50.866;4.332;2024-03-08T14:29:48;16.90;99.90
24152;DHT22;12311;50.866;4.332;2024-03-08T14:32:13;17.00;99.90
24152;DHT22;12311;50.866;4.332;2024-03-08T14:34:40;17.10;99.90
24152;DHT22;12311;50.866;4.332;2024-03-08T14:37:05;17.30;99.90
24152;DHT22;12311;50.866;4.332;2024-03-08T14:39:37;17.50;99.90
24152;DHT22;12311;50.866;4.332;2024-03-08T14:42:04;17.20;99.90
24152;DHT22;12311;50.866;4.332;2024-03-08T14:44:31;17.30;99.90
24152;DHT22;12311;50.866;4.332;2024-03-08T14:46:57;17.50;99.90
24152;DHT22;12311;50.866;4.332;2024-03-08T14:49:24;17.70;99.90
24152;DHT22;12311;50.866;4.332;2024-03-08T14:51:53;17.60;85.20
24152;DHT22;12311;50.866;4.332;2024-03-08T14:54:19;17.50;58.60
24152;DHT22;12311;50.866;4.332;2024-03-08T14:56:49;17.40;19.90
24152;DHT22;12311;50.866;4.332;2024-03-08T14:59:17;17.30;99.90
24152;DHT22;12311;50.866;4.332;2024-03-08T15:01:45;17.30;99.90
24152;DHT22;12311;50.866;4.332;2024-03-08T15:04:11;17.50;99.90
24152;DHT22;12311;50.866;4.332;2024-03-08T15:06:40;17.50;99.90
24152;DHT22;12311;50.866;4.332;2024-03-08T15:09:08;17.40;99.90
24152;DHT22;12311;50.866;4.332;2024-03-08T15:11:45;17.80;99.90
24152;DHT22;12311;50.866;4.332;2024-03-08T15:14:11;18.10;6.30
24152;DHT22;12311;50.866;4.332;2024-03-08T15:16:38;18.20;1.00
24152;DHT22;12311;50.866;4.332;2024-03-08T15:19:08;17.90;1.00
24152;DHT22;12311;50.866;4.332;2024-03-08T15:21:34;17.60;1.00
24152;DHT22;12311;50.866;4.332;2024-03-08T15:24:01;17.60;1.00
24152;DHT22;12311;50.866;4.332;2024-03-08T15:26:28;17.80;1.00
24152;DHT22;12311;50.866;4.332;2024-03-08T15:28:55;17.70;1.00
24152;DHT22;12311;50.866;4.332;2024-03-08T15:31:22;17.30;1.00
24152;DHT22;12311;50.866;4.332;2024-03-08T15:33:50;17.50;53.70
24152;DHT22;12311;50.866;4.332;2024-03-08T15:36:37;17.50;1.00
24152;DHT22;12311;50.866;4.332;2024-03-08T15:39:02;17.70;1.00
24152;DHT22;12311;50.866;4.332;2024-03-08T15:41:28;17.40;1.00
24152;DHT22;12311;50.866;4.332;2024-03-08T15:43:55;17.30;1.00
24152;DHT22;12311;50.866;4.332;2024-03-08T15:46:21;17.20;1.00
24152;DHT22;12311;50.866;4.332;2024-03-08T15:48:50;17.10;30.00
24152;DHT22;12311;50.866;4.332;2024-03-08T15:51:17;17.00;99.90
24152;DHT22;12311;50.866;4.332;2024-03-08T15:53:45;17.00;99.90